sensor_id;sensor_type;location;lat;lon;timestamp;temperature;humidity
2465;DHT22;1244;54.326;10.074;2024-01-06T00:02:04;-0.30;99.90
2465;DHT22;1244;54.326;10.074;2024-01-06T00:04:29;-0.30;99.90
2465;DHT22;1244;54.326;10.074;2024-01-06T00:06:55;-0.30;99.90
2465;DHT22;1244;54.326;10.074;2024-01-06T00:09:20;-0.30;99.90
2465;DHT22;1244;54.326;10.074;2024-01-06T00:11:46;-0.30;99.90
2465;DHT22;1244;54.326;10.074;2024-01-06T00:14:11;-0.40;99.90
2465;DHT22;1244;54.326;10.074;2024-01-06T00:16:36;-0.30;99.90
2465;DHT22;1244;54.326;10.074;2024-01-06T00:19:02;-0.30;99.90
2465;DHT22;1244;54.326;10.074;2024-01-06T00:21:27;-0.30;99.90
2465;DHT22;1244;54.326;10.074;2024-01-06T00:23:53;-0.30;99.90
2465;DHT22;1244;54.326;10.074;2024-01-06T00:26:21;-0.30;99.90
2465;DHT22;1244;54.326;10.074;2024-01-06T00:28:46;-0.30;99.90
2465;DHT22;1244;54.326;10.074;2024-01-06T00:31:14;-0.30;99.90
2465;DHT22;1244;54.326;10.074;2024-01-06T00:33:41;-0.30;99.90
2465;DHT22;1244;54.326;10.074;2024-01-06T00:36:07;-0.20;99.90
2465;DHT22;1244;54.326;10.074;2024-01-06T00:38:32;-0.20;99.90
2465;DHT22;1244;54.326;10.074;2024-01-06T00:40:58;-0.20;99.90
2465;DHT22;1244;54.326;10.074;2024-01-06T00:43:23;-0.20;99.90
2465;DHT22;1244;54.326;10.074;2024-01-06T00:45:49;-0.20;99.90
2465;DHT22;1244;54.326;10.074;2024-01-06T00:48:14;-0.20;99.90
2465;DHT22;1244;54.326;10.074;2024-01-06T00:50:40;-0.20;99.90
2465;DHT22;1244;54.326;10.074;2024-01-06T00:53:05;-0.20;99.90
2465;DHT22;1244;54.326;10.074;2024-01-06T00:55:31;-0.20;99.90
2465;DHT22;1244;54.326;10.074;2024-01-06T00:57:56;-0.20;99.90
2465;DHT22;1244;54.326;10.074;2024-01-06T01:00:22;-0.20;99.90
2465;DHT22;1244;54.326;10.074;2024-01-06T01:02:48;-0.20;99.90
2465;DHT22;1244;54.326;10.074;2024-01-06T01:05:13;-0.20;99.90
2465;DHT22;1244;54.326;10.074;2024-01-06T01:07:39;-0.20;99.90
2465;DHT22;1244;54.326;10.074;2024-01-06T01:10:04;-0.20;99.90
2465;DHT22;1244;54.326;10.074;2024-01-06T01:12:31;-0.20;99.90
2465;DHT22;1244;54.326;10.074;2024-01-06T01:14:56;-0.20;99.90
2465;DHT22;1244;54.326;10.074;2024-01-06T01:17:22;-0.20;99.90
2465;DHT22;1244;54.326;10.074;2024-01-06T01:19:47;-0.20;99.90
2465;DHT22;1244;54.326;10.074;2024-01-06T01:22:13;-0.20;99.90
2465;DHT22;1244;54.326;10.074;2024-01-06T01:24:38;-0.20;99.90
2465;DHT22;1244;54.326;10.074;2024-01-06T01:27:04;-0.20;99.90
2465;DHT22;1244;54.326;10.074;2024-01-06T01:29:29;-0.20;99.90
2465;DHT22;1244;54.326;10.074;2024-01-06T01:31:55;-0.20;99.90
2465;DHT22;1244;54.326;10.074;2024-01-06T01:34:20;-0.20;99.90
2465;DHT22;1244;54.326;10.074;2024-01-06T01:36:46;-0.20;99.90
2465;DHT22;1244;54.326;10.074;2024-01-06T01:39:11;-0.20;99.90
2465;DHT22;1244;54.326;10.074;2024-01-06T01:41:37;-0.10;99.90
2465;DHT22;1244;54.326;10.074;2024-01-06T01:44:02;-0.10;99.90
2465;DHT22;1244;54.326;10.074;2024-01-06T01:46:28;-0.10;99.90
2465;DHT22;1244;54.326;10.074;2024-01-06T01:48:54;-0.10;99.90
2465;DHT22;1244;54.326;10.074;2024-01-06T01:51:20;-0.10;99.90
2465;DHT22;1244;54.326;10.074;2024-01-06T01:53:46;-0.10;99.90
2465;DHT22;1244;54.326;10.074;2024-01-06T01:56:11;-0.10;99.90
2465;DHT22;1244;54.326;10.074;2024-01-06T01:58:37;-0.10;99.90
2465;DHT22;1244;54.326;10.074;2024-01-06T02:01:03;-0.10;99.90
2465;DHT22;1244;54.326;10.074;2024-01-06T02:03:29;-0.10;99.90
2465;DHT22;1244;54.326;10.074;2024-01-06T02:05:55;0.00;99.90
2465;DHT22;1244;54.326;10.074;2024-01-06T02:08:20;-0.10;99.90
2465;DHT22;1244;54.326;10.074;2024-01-06T02:10:46;-0.10;99.90
2465;DHT22;1244;54.326;10.074;2024-01-06T02:13:11;-0.10;99.90
2465;DHT22;1244;54.326;10.074;2024-01-06T02:15:37;-0.10;99.90
2465;DHT22;1244;54.326;10.074;2024-01-06T02:18:03;-0.10;99.90
2465;DHT22;1244;54.326;10.074;2024-01-06T02:20:29;-0.10;99.90
2465;DHT22;1244;54.326;10.074;2024-01-06T02:22:55;-0.10;99.90
2465;DHT22;1244;54.326;10.074;2024-01-06T02:25:22;-0.10;99.90
2465;DHT22;1244;54.326;10.074;2024-01-06T02:27:47;-0.10;99.90
2465;DHT22;1244;54.326;10.074;2024-01-06T02:30:13;-0.10;99.90
2465;DHT22;1244;54.326;10.074;2024-01-06T02:32:38;-0.10;99.90
2465;DHT22;1244;54.326;10.074;2024-01-06T02:35:04;-0.10;99.90
2465;DHT22;1244;54.326;10.074;2024-01-06T02:37:29;-0.10;99.90
2465;DHT22;1244;54.326;10.074;2024-01-06T02:39:55;-0.10;99.90
2465;DHT22;1244;54.326;10.074;2024-01-06T02:42:20;-0.10;99.90
2465;DHT22;1244;54.326;10.074;2024-01-06T02:44:46;-0.10;99.90
2465;DHT22;1244;54.326;10.074;2024-01-06T02:47:11;-0.10;99.90
2465;DHT22;1244;54.326;10.074;2024-01-06T02:49:36;-0.10;99.90
2465;DHT22;1244;54.326;10.074;2024-01-06T02:52:02;-0.10;99.90
2465;DHT22;1244;54.326;10.074;2024-01-06T02:54:27;-0.10;99.90
2465;DHT22;1244;54.326;10.074;2024-01-06T02:56:53;-0.10;99.90
2465;DHT22;1244;54.326;10.074;2024-01-06T02:59:18;-0.10;99.90
2465;DHT22;1244;54.326;10.074;2024-01-06T03:01:44;0.00;99.90
2465;DHT22;1244;54.326;10.074;2024-01-06T03:04:09;0.00;99.90
2465;DHT22;1244;54.326;10.074;2024-01-06T03:06:35;0.00;99.90
2465;DHT22;1244;54.326;10.074;2024-01-06T03:09:00;0.00;99.90
2465;DHT22;1244;54.326;10.074;2024-01-06T03:11:26;0.00;99.90
2465;DHT22;1244;54.326;10.074;2024-01-06T03:13:51;0.00;99.90
2465;DHT22;1244;54.326;10.074;2024-01-06T03:16:16;0.00;99.90
2465;DHT22;1244;54.326;10.074;2024-01-06T03:18:42;0.00;99.90
2465;DHT22;1244;54.326;10.074;2024-01-06T03:21:20;-0.10;99.90
2465;DHT22;1244;54.326;10.074;2024-01-06T03:23:46;-0.10;99.90
2465;DHT22;1244;54.326;10.074;2024-01-06T03:26:11;-0.10;99.90
2465;DHT22;1244;54.326;10.074;2024-01-06T03:28:37;-0.10;99.90
2465;DHT22;1244;54.326;10.074;2024-01-06T03:31:02;-0.10;99.90
2465;DHT22;1244;54.326;10.074;2024-01-06T03:33:28;-0.10;99.90
2465;DHT22;1244;54.326;10.074;2024-01-06T03:35:53;-0.10;99.90
2465;DHT22;1244;54.326;10.074;2024-01-06T03:38:18;-0.10;99.90
2465;DHT22;1244;54.326;10.074;2024-01-06T03:40:44;-0.10;99.90
2465;DHT22;1244;54.326;10.074;2024-01-06T03:43:09;-0.10;99.90
2465;DHT22;1244;54.326;10.074;2024-01-06T03:45:35;-0.10;99.90
2465;DHT22;1244;54.326;10.074;2024-01-06T03:48:00;-0.10;99.90
2465;DHT22;1244;54.326;10.074;2024-01-06T03:50:25;-0.10;99.90
2465;DHT22;1244;54.326;10.074;2024-01-06T03:52:51;-0.10;99.90
2465;DHT22;1244;54.326;10.074;2024-01-06T03:55:16;-0.10;99.90
2465;DHT22;1244;54.326;10.074;2024-01-06T03:57:42;-0.10;99.90
2465;DHT22;1244;54.326;10.074;2024-01-06T04:00:08;-0.10;99.90
2465;DHT22;1244;54.326;10.074;2024-01-06T04:02:33;-0.10;99.90
2465;DHT22;1244;54.326;10.074;2024-01-06T04:04:59;-0.10;99.90
2465;DHT22;1244;54.326;10.074;2024-01-06T04:07:24;-0.10;99.90
2465;DHT22;1244;54.326;10.074;2024-01-06T04:09:50;-0.10;99.90
2465;DHT22;1244;54.326;10.074;2024-01-06T04:12:15;-0.10;99.90
2465;DHT22;1244;54.326;10.074;2024-01-06T04:14:40;-0.10;99.90
2465;DHT22;1244;54.326;10.074;2024-01-06T04:17:06;-0.10;99.90
2465;DHT22;1244;54.326;10.074;2024-01-06T04:19:31;-0.10;99.90
2465;DHT22;1244;54.326;10.074;2024-01-06T04:21:57;-0.10;99.90
2465;DHT22;1244;54.326;10.074;2024-01-06T04:24:22;-0.10;99.90
2465;DHT22;1244;54.326;10.074;2024-01-06T04:26:49;-0.10;99.90
2465;DHT22;1244;54.326;10.074;2024-01-06T04:29:14;-0.10;99.90
2465;DHT22;1244;54.326;10.074;2024-01-06T04:31:42;-0.10;99.90
2465;DHT22;1244;54.326;10.074;2024-01-06T04:34:08;-0.10;99.90
2465;DHT22;1244;54.326;10.074;2024-01-06T04:36:33;-0.10;99.90
2465;DHT22;1244;54.326;10.074;2024-01-06T04:38:59;-0.10;99.90
2465;DHT22;1244;54.326;10.074;2024-01-06T04:41:24;-0.10;99.90
2465;DHT22;1244;54.326;10.074;2024-01-06T04:43:50;-0.10;99.90
2465;DHT22;1244;54.326;10.074;2024-01-06T04:46:15;-0.10;99.90
2465;DHT22;1244;54.326;10.074;2024-01-06T04:48:41;-0.10;99.90
2465;DHT22;1244;54.326;10.074;2024-01-06T04:51:06;-0.10;99.90
2465;DHT22;1244;54.326;10.074;2024-01-06T04:53:38;-0.10;99.90
2465;DHT22;1244;54.326;10.074;2024-01-06T04:56:04;-0.10;99.90
2465;DHT22;1244;54.326;10.074;2024-01-06T04:58:29;-0.20;99.90
2465;DHT22;1244;54.326;10.074;2024-01-06T05:00:55;-0.10;99.90
2465;DHT22;1244;54.326;10.074;2024-01-06T05:03:20;-0.10;99.90
2465;DHT22;1244;54.326;10.074;2024-01-06T05:05:46;-0.20;99.90
2465;DHT22;1244;54.326;10.074;2024-01-06T05:08:11;-0.10;99.90
2465;DHT22;1244;54.326;10.074;2024-01-06T05:10:37;-0.10;99.90
2465;DHT22;1244;54.326;10.074;2024-01-06T05:13:02;-0.10;99.90
2465;DHT22;1244;54.326;10.074;2024-01-06T05:15:28;-0.10;99.90
2465;DHT22;1244;54.326;10.074;2024-01-06T05:17:53;-0.10;99.90
2465;DHT22;1244;54.326;10.074;2024-01-06T05:20:19;-0.10;99.90
2465;DHT22;1244;54.326;10.074;2024-01-06T05:22:45;-0.10;99.90
2465;DHT22;1244;54.326;10.074;2024-01-06T05:25:10;-0.10;99.90
2465;DHT22;1244;54.326;10.074;2024-01-06T05:27:36;-0.10;99.90
2465;DHT22;1244;54.326;10.074;2024-01-06T05:30:02;-0.10;99.90
2465;DHT22;1244;54.326;10.074;2024-01-06T05:32:27;-0.10;99.90
2465;DHT22;1244;54.326;10.074;2024-01-06T05:34:52;-0.10;99.90
2465;DHT22;1244;54.326;10.074;2024-01-06T05:37:18;-0.10;99.90
2465;DHT22;1244;54.326;10.074;2024-01-06T05:39:43;-0.20;99.90
2465;DHT22;1244;54.326;10.074;2024-01-06T05:42:09;-0.20;99.90
2465;DHT22;1244;54.326;10.074;2024-01-06T05:44:36;-0.20;99.90
2465;DHT22;1244;54.326;10.074;2024-01-06T05:47:02;-0.20;99.90
2465;DHT22;1244;54.326;10.074;2024-01-06T05:49:28;-0.20;99.90
2465;DHT22;1244;54.326;10.074;2024-01-06T05:51:53;-0.10;99.90
2465;DHT22;1244;54.326;10.074;2024-01-06T05:54:19;-0.10;99.90
2465;DHT22;1244;54.326;10.074;2024-01-06T05:56:44;-0.20;99.90
2465;DHT22;1244;54.326;10.074;2024-01-06T05:59:10;-0.10;99.90
2465;DHT22;1244;54.326;10.074;2024-01-06T06:01:35;-0.10;99.90
2465;DHT22;1244;54.326;10.074;2024-01-06T06:04:01;-0.10;99.90
2465;DHT22;1244;54.326;10.074;2024-01-06T06:06:26;-0.10;99.90
2465;DHT22;1244;54.326;10.074;2024-01-06T06:08:52;-0.10;99.90
2465;DHT22;1244;54.326;10.074;2024-01-06T06:11:18;-0.10;99.90
2465;DHT22;1244;54.326;10.074;2024-01-06T06:13:44;-0.10;99.90
2465;DHT22;1244;54.326;10.074;2024-01-06T06:16:10;-0.10;99.90
2465;DHT22;1244;54.326;10.074;2024-01-06T06:18:39;-0.10;99.90
2465;DHT22;1244;54.326;10.074;2024-01-06T06:21:06;-0.10;99.90
2465;DHT22;1244;54.326;10.074;2024-01-06T06:23:32;0.00;99.90
2465;DHT22;1244;54.326;10.074;2024-01-06T06:25:57;-0.10;99.90
2465;DHT22;1244;54.326;10.074;2024-01-06T06:28:23;-0.10;99.90
2465;DHT22;1244;54.326;10.074;2024-01-06T06:30:48;-0.10;99.90
2465;DHT22;1244;54.326;10.074;2024-01-06T06:33:14;0.00;99.90
2465;DHT22;1244;54.326;10.074;2024-01-06T06:35:39;0.00;99.90
2465;DHT22;1244;54.326;10.074;2024-01-06T06:38:05;-0.10;99.90
2465;DHT22;1244;54.326;10.074;2024-01-06T06:40:31;-0.10;99.90
2465;DHT22;1244;54.326;10.074;2024-01-06T06:42:57;-0.10;99.90
2465;DHT22;1244;54.326;10.074;2024-01-06T06:45:22;-0.10;99.90
2465;DHT22;1244;54.326;10.074;2024-01-06T06:47:50;0.00;99.90
2465;DHT22;1244;54.326;10.074;2024-01-06T06:50:17;0.00;99.90
2465;DHT22;1244;54.326;10.074;2024-01-06T06:52:42;0.00;99.90
2465;DHT22;1244;54.326;10.074;2024-01-06T06:55:08;0.00;99.90
2465;DHT22;1244;54.326;10.074;2024-01-06T06:57:34;0.00;99.90
2465;DHT22;1244;54.326;10.074;2024-01-06T06:59:59;0.00;99.90
2465;DHT22;1244;54.326;10.074;2024-01-06T07:02:25;0.00;99.90
2465;DHT22;1244;54.326;10.074;2024-01-06T07:04:51;0.00;99.90
2465;DHT22;1244;54.326;10.074;2024-01-06T07:07:17;0.10;99.90
2465;DHT22;1244;54.326;10.074;2024-01-06T07:09:42;0.10;99.90
2465;DHT22;1244;54.326;10.074;2024-01-06T07:12:08;0.10;99.90
2465;DHT22;1244;54.326;10.074;2024-01-06T07:14:33;0.10;99.90
2465;DHT22;1244;54.326;10.074;2024-01-06T07:16:59;0.10;99.90
2465;DHT22;1244;54.326;10.074;2024-01-06T07:19:24;0.10;99.90
2465;DHT22;1244;54.326;10.074;2024-01-06T07:21:50;0.20;99.90
2465;DHT22;1244;54.326;10.074;2024-01-06T07:24:17;0.10;99.90
2465;DHT22;1244;54.326;10.074;2024-01-06T07:26:43;0.10;99.90
2465;DHT22;1244;54.326;10.074;2024-01-06T07:29:08;0.10;99.90
2465;DHT22;1244;54.326;10.074;2024-01-06T07:31:34;0.20;99.90
2465;DHT22;1244;54.326;10.074;2024-01-06T07:33:59;0.10;99.90
2465;DHT22;1244;54.326;10.074;2024-01-06T07:36:25;0.10;99.90
2465;DHT22;1244;54.326;10.074;2024-01-06T07:38:50;0.20;99.90
2465;DHT22;1244;54.326;10.074;2024-01-06T07:41:17;0.20;99.90
2465;DHT22;1244;54.326;10.074;2024-01-06T07:43:43;0.20;99.90
2465;DHT22;1244;54.326;10.074;2024-01-06T07:46:09;0.30;99.90
2465;DHT22;1244;54.326;10.074;2024-01-06T07:48:35;0.20;99.90
2465;DHT22;1244;54.326;10.074;2024-01-06T07:51:01;0.20;99.90
2465;DHT22;1244;54.326;10.074;2024-01-06T07:53:27;0.20;99.90
2465;DHT22;1244;54.326;10.074;2024-01-06T07:55:53;0.20;99.90
2465;DHT22;1244;54.326;10.074;2024-01-06T07:58:19;0.20;99.90
2465;DHT22;1244;54.326;10.074;2024-01-06T08:00:45;0.20;99.90
2465;DHT22;1244;54.326;10.074;2024-01-06T08:03:10;0.20;99.90
2465;DHT22;1244;54.326;10.074;2024-01-06T08:05:36;0.20;99.90
2465;DHT22;1244;54.326;10.074;2024-01-06T08:08:03;0.10;99.90
2465;DHT22;1244;54.326;10.074;2024-01-06T08:10:29;0.10;99.90
2465;DHT22;1244;54.326;10.074;2024-01-06T08:12:55;0.20;99.90
2465;DHT22;1244;54.326;10.074;2024-01-06T08:15:21;0.20;99.90
2465;DHT22;1244;54.326;10.074;2024-01-06T08:17:47;0.20;99.90
2465;DHT22;1244;54.326;10.074;2024-01-06T08:20:13;0.20;99.90
2465;DHT22;1244;54.326;10.074;2024-01-06T08:22:38;0.20;99.90
2465;DHT22;1244;54.326;10.074;2024-01-06T08:25:05;0.20;99.90
2465;DHT22;1244;54.326;10.074;2024-01-06T08:27:34;0.20;99.90
2465;DHT22;1244;54.326;10.074;2024-01-06T08:30:00;0.20;99.90
2465;DHT22;1244;54.326;10.074;2024-01-06T08:32:26;0.20;99.90
2465;DHT22;1244;54.326;10.074;2024-01-06T08:34:51;0.30;99.90
2465;DHT22;1244;54.326;10.074;2024-01-06T08:37:17;0.30;99.90
2465;DHT22;1244;54.326;10.074;2024-01-06T08:39:43;0.30;99.90
2465;DHT22;1244;54.326;10.074;2024-01-06T08:42:08;0.30;99.90
2465;DHT22;1244;54.326;10.074;2024-01-06T08:44:34;0.30;99.90
2465;DHT22;1244;54.326;10.074;2024-01-06T08:46:59;0.40;99.90
2465;DHT22;1244;54.326;10.074;2024-01-06T08:49:25;0.30;99.90
2465;DHT22;1244;54.326;10.074;2024-01-06T08:51:50;0.30;99.90
2465;DHT22;1244;54.326;10.074;2024-01-06T08:54:16;0.30;99.90
2465;DHT22;1244;54.326;10.074;2024-01-06T08:56:41;0.40;99.90
2465;DHT22;1244;54.326;10.074;2024-01-06T08:59:07;0.40;99.90
2465;DHT22;1244;54.326;10.074;2024-01-06T09:01:32;0.40;99.90
2465;DHT22;1244;54.326;10.074;2024-01-06T09:03:59;0.40;99.90
2465;DHT22;1244;54.326;10.074;2024-01-06T09:06:25;0.50;99.90
2465;DHT22;1244;54.326;10.074;2024-01-06T09:08:50;0.50;99.90
2465;DHT22;1244;54.326;10.074;2024-01-06T09:11:16;0.50;99.90
2465;DHT22;1244;54.326;10.074;2024-01-06T09:13:41;0.50;99.90
2465;DHT22;1244;54.326;10.074;2024-01-06T09:16:07;0.40;99.90
2465;DHT22;1244;54.326;10.074;2024-01-06T09:18:33;0.50;99.90
2465;DHT22;1244;54.326;10.074;2024-01-06T09:20:58;0.50;99.90
2465;DHT22;1244;54.326;10.074;2024-01-06T09:23:24;0.50;99.90
2465;DHT22;1244;54.326;10.074;2024-01-06T09:25:49;0.50;99.90
2465;DHT22;1244;54.326;10.074;2024-01-06T09:28:17;0.50;99.90
2465;DHT22;1244;54.326;10.074;2024-01-06T09:30:42;0.50;99.90
2465;DHT22;1244;54.326;10.074;2024-01-06T09:33:08;0.50;99.90
2465;DHT22;1244;54.326;10.074;2024-01-06T09:35:34;0.50;99.90
2465;DHT22;1244;54.326;10.074;2024-01-06T09:38:00;0.60;99.90
2465;DHT22;1244;54.326;10.074;2024-01-06T09:40:25;0.50;99.90
2465;DHT22;1244;54.326;10.074;2024-01-06T09:42:51;0.50;99.90
2465;DHT22;1244;54.326;10.074;2024-01-06T09:45:17;0.50;99.90
2465;DHT22;1244;54.326;10.074;2024-01-06T09:47:50;0.50;99.90
2465;DHT22;1244;54.326;10.074;2024-01-06T09:50:20;0.50;99.90
2465;DHT22;1244;54.326;10.074;2024-01-06T09:52:46;0.50;99.90
2465;DHT22;1244;54.326;10.074;2024-01-06T09:55:23;0.40;99.90
2465;DHT22;1244;54.326;10.074;2024-01-06T09:57:49;0.50;99.90
2465;DHT22;1244;54.326;10.074;2024-01-06T10:00:16;0.40;99.90
2465;DHT22;1244;54.326;10.074;2024-01-06T10:02:42;0.50;99.90
2465;DHT22;1244;54.326;10.074;2024-01-06T10:05:09;0.50;99.90
2465;DHT22;1244;54.326;10.074;2024-01-06T10:07:35;0.50;99.90
2465;DHT22;1244;54.326;10.074;2024-01-06T10:10:00;0.40;99.90
2465;DHT22;1244;54.326;10.074;2024-01-06T10:12:29;0.40;99.90
2465;DHT22;1244;54.326;10.074;2024-01-06T10:14:54;0.50;99.90
2465;DHT22;1244;54.326;10.074;2024-01-06T10:17:20;0.50;99.90
2465;DHT22;1244;54.326;10.074;2024-01-06T10:19:46;0.50;99.90
2465;DHT22;1244;54.326;10.074;2024-01-06T10:22:13;0.50;99.90
2465;DHT22;1244;54.326;10.074;2024-01-06T10:24:39;0.50;99.90
2465;DHT22;1244;54.326;10.074;2024-01-06T10:27:05;0.50;99.90
2465;DHT22;1244;54.326;10.074;2024-01-06T10:29:31;0.40;99.90
2465;DHT22;1244;54.326;10.074;2024-01-06T10:31:58;0.50;99.90
2465;DHT22;1244;54.326;10.074;2024-01-06T10:34:23;0.50;99.90
2465;DHT22;1244;54.326;10.074;2024-01-06T10:36:50;0.50;99.90
2465;DHT22;1244;54.326;10.074;2024-01-06T10:39:17;0.50;99.90
2465;DHT22;1244;54.326;10.074;2024-01-06T10:41:44;0.50;99.90
2465;DHT22;1244;54.326;10.074;2024-01-06T10:44:10;0.50;99.90
2465;DHT22;1244;54.326;10.074;2024-01-06T10:46:36;0.50;99.90
2465;DHT22;1244;54.326;10.074;2024-01-06T10:49:05;0.50;99.90
2465;DHT22;1244;54.326;10.074;2024-01-06T10:51:32;0.50;99.90
2465;DHT22;1244;54.326;10.074;2024-01-06T10:54:00;0.50;99.90
2465;DHT22;1244;54.326;10.074;2024-01-06T10:56:26;0.40;99.90
2465;DHT22;1244;54.326;10.074;2024-01-06T10:58:53;0.50;99.90
2465;DHT22;1244;54.326;10.074;2024-01-06T11:01:21;0.40;99.90
2465;DHT22;1244;54.326;10.074;2024-01-06T11:03:48;0.40;99.90
2465;DHT22;1244;54.326;10.074;2024-01-06T11:06:14;0.40;99.90
2465;DHT22;1244;54.326;10.074;2024-01-06T11:11:35;0.40;99.90
2465;DHT22;1244;54.326;10.074;2024-01-06T11:14:24;0.40;99.90
2465;DHT22;1244;54.326;10.074;2024-01-06T11:16:51;0.40;99.90
2465;DHT22;1244;54.326;10.074;2024-01-06T11:24:54;0.40;99.90
2465;DHT22;1244;54.326;10.074;2024-01-06T11:27:26;0.40;99.90
2465;DHT22;1244;54.326;10.074;2024-01-06T11:29:56;0.40;99.90
2465;DHT22;1244;54.326;10.074;2024-01-06T11:32:28;0.50;99.90
2465;DHT22;1244;54.326;10.074;2024-01-06T11:34:55;0.50;99.90
2465;DHT22;1244;54.326;10.074;2024-01-06T11:37:34;0.50;99.90
2465;DHT22;1244;54.326;10.074;2024-01-06T11:40:01;0.50;99.90
2465;DHT22;1244;54.326;10.074;2024-01-06T11:42:33;0.50;99.90
2465;DHT22;1244;54.326;10.074;2024-01-06T11:45:04;0.50;99.90
2465;DHT22;1244;54.326;10.074;2024-01-06T11:47:34;0.50;99.90
2465;DHT22;1244;54.326;10.074;2024-01-06T11:50:02;0.50;99.90
2465;DHT22;1244;54.326;10.074;2024-01-06T11:52:32;0.50;99.90
2465;DHT22;1244;54.326;10.074;2024-01-06T11:54:59;0.40;99.90
2465;DHT22;1244;54.326;10.074;2024-01-06T11:57:28;0.40;99.90
2465;DHT22;1244;54.326;10.074;2024-01-06T11:59:54;0.40;99.90
2465;DHT22;1244;54.326;10.074;2024-01-06T12:02:20;0.40;99.90
2465;DHT22;1244;54.326;10.074;2024-01-06T12:04:50;0.50;99.90
2465;DHT22;1244;54.326;10.074;2024-01-06T12:07:16;0.40;99.90
2465;DHT22;1244;54.326;10.074;2024-01-06T12:09:42;0.40;99.90
2465;DHT22;1244;54.326;10.074;2024-01-06T12:12:08;0.40;99.90
2465;DHT22;1244;54.326;10.074;2024-01-06T12:14:36;0.40;99.90
2465;DHT22;1244;54.326;10.074;2024-01-06T12:17:01;0.40;99.90
2465;DHT22;1244;54.326;10.074;2024-01-06T12:19:32;0.40;99.90
2465;DHT22;1244;54.326;10.074;2024-01-06T12:21:57;0.50;99.90
2465;DHT22;1244;54.326;10.074;2024-01-06T12:24:23;0.40;99.90
2465;DHT22;1244;54.326;10.074;2024-01-06T12:26:49;0.50;99.90
2465;DHT22;1244;54.326;10.074;2024-01-06T12:29:16;0.50;99.90
2465;DHT22;1244;54.326;10.074;2024-01-06T12:31:43;0.50;99.90
2465;DHT22;1244;54.326;10.074;2024-01-06T12:34:10;0.60;99.90
2465;DHT22;1244;54.326;10.074;2024-01-06T12:36:40;0.50;99.90
2465;DHT22;1244;54.326;10.074;2024-01-06T12:39:10;0.50;99.90
2465;DHT22;1244;54.326;10.074;2024-01-06T12:41:41;0.50;99.90
2465;DHT22;1244;54.326;10.074;2024-01-06T12:44:07;0.50;99.90
2465;DHT22;1244;54.326;10.074;2024-01-06T12:46:33;0.60;99.90
2465;DHT22;1244;54.326;10.074;2024-01-06T12:48:59;0.60;99.90
2465;DHT22;1244;54.326;10.074;2024-01-06T12:51:24;0.60;99.90
2465;DHT22;1244;54.326;10.074;2024-01-06T12:53:50;0.60;99.90
2465;DHT22;1244;54.326;10.074;2024-01-06T12:56:16;0.50;99.90
2465;DHT22;1244;54.326;10.074;2024-01-06T12:58:41;0.60;99.90
2465;DHT22;1244;54.326;10.074;2024-01-06T13:01:07;0.60;99.90
2465;DHT22;1244;54.326;10.074;2024-01-06T13:03:33;0.60;99.90
2465;DHT22;1244;54.326;10.074;2024-01-06T13:06:00;0.60;99.90
2465;DHT22;1244;54.326;10.074;2024-01-06T13:08:26;0.50;99.90
2465;DHT22;1244;54.326;10.074;2024-01-06T13:10:53;0.60;99.90
2465;DHT22;1244;54.326;10.074;2024-01-06T13:13:18;0.60;99.90
2465;DHT22;1244;54.326;10.074;2024-01-06T13:15:44;0.60;99.90
2465;DHT22;1244;54.326;10.074;2024-01-06T13:18:12;0.60;99.90
2465;DHT22;1244;54.326;10.074;2024-01-06T13:20:38;0.50;99.90
2465;DHT22;1244;54.326;10.074;2024-01-06T13:23:06;0.50;99.90
2465;DHT22;1244;54.326;10.074;2024-01-06T13:25:32;0.50;99.90
2465;DHT22;1244;54.326;10.074;2024-01-06T13:27:58;0.40;99.90
2465;DHT22;1244;54.326;10.074;2024-01-06T13:30:23;0.40;99.90
2465;DHT22;1244;54.326;10.074;2024-01-06T13:32:51;0.40;99.90
2465;DHT22;1244;54.326;10.074;2024-01-06T13:35:22;0.40;99.90
2465;DHT22;1244;54.326;10.074;2024-01-06T13:37:53;0.40;99.90
2465;DHT22;1244;54.326;10.074;2024-01-06T13:40:21;0.30;99.90
2465;DHT22;1244;54.326;10.074;2024-01-06T13:42:47;0.30;99.90
2465;DHT22;1244;54.326;10.074;2024-01-06T13:45:13;0.30;99.90
2465;DHT22;1244;54.326;10.074;2024-01-06T13:47:39;0.30;99.90
2465;DHT22;1244;54.326;10.074;2024-01-06T13:50:16;0.30;99.90
2465;DHT22;1244;54.326;10.074;2024-01-06T13:52:43;0.30;99.90
2465;DHT22;1244;54.326;10.074;2024-01-06T13:55:09;0.30;99.90
2465;DHT22;1244;54.326;10.074;2024-01-06T13:57:35;0.30;99.90
2465;DHT22;1244;54.326;10.074;2024-01-06T14:00:02;0.30;99.90
2465;DHT22;1244;54.326;10.074;2024-01-06T14:02:30;0.20;99.90
2465;DHT22;1244;54.326;10.074;2024-01-06T14:04:55;0.30;99.90
2465;DHT22;1244;54.326;10.074;2024-01-06T14:07:21;0.30;99.90
2465;DHT22;1244;54.326;10.074;2024-01-06T14:09:48;0.30;99.90
2465;DHT22;1244;54.326;10.074;2024-01-06T14:12:13;0.30;99.90
2465;DHT22;1244;54.326;10.074;2024-01-06T14:14:39;0.20;99.90
2465;DHT22;1244;54.326;10.074;2024-01-06T14:17:07;0.20;99.90
2465;DHT22;1244;54.326;10.074;2024-01-06T14:19:32;0.20;99.90
2465;DHT22;1244;54.326;10.074;2024-01-06T14:21:58;0.20;99.90
2465;DHT22;1244;54.326;10.074;2024-01-06T14:24:23;0.20;99.90
2465;DHT22;1244;54.326;10.074;2024-01-06T14:26:50;0.20;99.90
2465;DHT22;1244;54.326;10.074;2024-01-06T14:29:16;0.20;99.90
2465;DHT22;1244;54.326;10.074;2024-01-06T14:31:43;0.20;99.90
2465;DHT22;1244;54.326;10.074;2024-01-06T14:34:09;0.20;99.90
2465;DHT22;1244;54.326;10.074;2024-01-06T14:36:34;0.20;99.90
2465;DHT22;1244;54.326;10.074;2024-01-06T14:39:00;0.20;99.90
2465;DHT22;1244;54.326;10.074;2024-01-06T14:41:26;0.20;99.90
2465;DHT22;1244;54.326;10.074;2024-01-06T14:43:51;0.20;99.90
2465;DHT22;1244;54.326;10.074;2024-01-06T14:46:17;0.20;99.90
2465;DHT22;1244;54.326;10.074;2024-01-06T14:48:44;0.30;99.90
2465;DHT22;1244;54.326;10.074;2024-01-06T14:51:09;0.20;99.90
2465;DHT22;1244;54.326;10.074;2024-01-06T14:53:35;0.20;99.90
2465;DHT22;1244;54.326;10.074;2024-01-06T14:56:01;0.20;99.90
2465;DHT22;1244;54.326;10.074;2024-01-06T14:58:26;0.20;99.90
2465;DHT22;1244;54.326;10.074;2024-01-06T15:00:52;0.20;99.90
2465;DHT22;1244;54.326;10.074;2024-01-06T15:03:17;0.20;99.90
2465;DHT22;1244;54.326;10.074;2024-01-06T15:05:43;0.30;99.90
2465;DHT22;1244;54.326;10.074;2024-01-06T15:08:08;0.20;99.90
2465;DHT22;1244;54.326;10.074;2024-01-06T15:10:34;0.20;99.90
2465;DHT22;1244;54.326;10.074;2024-01-06T15:12:59;0.20;99.90
2465;DHT22;1244;54.326;10.074;2024-01-06T15:15:25;0.20;99.90
2465;DHT22;1244;54.326;10.074;2024-01-06T15:17:51;0.20;99.90
2465;DHT22;1244;54.326;10.074;2024-01-06T15:20:17;0.10;99.90
2465;DHT22;1244;54.326;10.074;2024-01-06T15:22:42;0.10;99.90
2465;DHT22;1244;54.326;10.074;2024-01-06T15:25:08;0.00;99.90
2465;DHT22;1244;54.326;10.074;2024-01-06T15:27:35;0.00;99.90
2465;DHT22;1244;54.326;10.074;2024-01-06T15:30:01;0.00;99.90
2465;DHT22;1244;54.326;10.074;2024-01-06T15:32:37;0.00;99.90
2465;DHT22;1244;54.326;10.074;2024-01-06T15:35:03;0.00;99.90
2465;DHT22;1244;54.326;10.074;2024-01-06T15:37:32;0.00;99.90
2465;DHT22;1244;54.326;10.074;2024-01-06T15:39:57;0.00;99.90
2465;DHT22;1244;54.326;10.074;2024-01-06T15:42:23;0.00;99.90
2465;DHT22;1244;54.326;10.074;2024-01-06T15:44:48;0.00;99.90
2465;DHT22;1244;54.326;10.074;2024-01-06T15:47:14;-0.10;99.90
2465;DHT22;1244;54.326;10.074;2024-01-06T15:49:40;-0.10;99.90
2465;DHT22;1244;54.326;10.074;2024-01-06T15:52:05;-0.10;99.90
2465;DHT22;1244;54.326;10.074;2024-01-06T15:54:33;0.00;99.90
2465;DHT22;1244;54.326;10.074;2024-01-06T15:57:00;0.00;99.90